sensor_id;sensor_type;location;lat;lon;timestamp;temperature;humidity
73939;DHT22;62291;47.554;8.504;2024-03-08T00:00:00;1.30;99.90
73939;DHT22;62291;47.554;8.504;2024-03-08T00:02:36;1.20;99.90
73939;DHT22;62291;47.554;8.504;2024-03-08T00:05:03;1.10;99.90
73939;DHT22;62291;47.554;8.504;2024-03-08T00:07:29;1.00;99.90
73939;DHT22;62291;47.554;8.504;2024-03-08T00:09:55;1.00;99.90
73939;DHT22;62291;47.554;8.504;2024-03-08T00:12:20;1.00;99.90
73939;DHT22;62291;47.554;8.504;2024-03-08T00:14:46;1.10;99.90
73939;DHT22;62291;47.554;8.504;2024-03-08T00:17:12;1.20;99.90
73939;DHT22;62291;47.554;8.504;2024-03-08T00:19:37;1.30;99.90
73939;DHT22;62291;47.554;8.504;2024-03-08T00:22:04;1.40;99.90
73939;DHT22;62291;47.554;8.504;2024-03-08T00:24:30;1.40;99.90
73939;DHT22;62291;47.554;8.504;2024-03-08T00:26:56;1.60;99.90
73939;DHT22;62291;47.554;8.504;2024-03-08T00:29:22;1.70;99.90
73939;DHT22;62291;47.554;8.504;2024-03-08T00:31:47;1.70;99.90
73939;DHT22;62291;47.554;8.504;2024-03-08T00:34:13;1.80;99.90
73939;DHT22;62291;47.554;8.504;2024-03-08T00:36:39;1.80;99.90
73939;DHT22;62291;47.554;8.504;2024-03-08T00:39:04;1.70;99.90
73939;DHT22;62291;47.554;8.504;2024-03-08T00:41:33;1.70;99.90
73939;DHT22;62291;47.554;8.504;2024-03-08T00:43:59;1.70;99.90
73939;DHT22;62291;47.554;8.504;2024-03-08T00:46:24;1.70;99.90
73939;DHT22;62291;47.554;8.504;2024-03-08T00:48:50;1.70;99.90
73939;DHT22;62291;47.554;8.504;2024-03-08T00:51:16;1.60;99.90
73939;DHT22;62291;47.554;8.504;2024-03-08T00:53:42;1.60;99.90
73939;DHT22;62291;47.554;8.504;2024-03-08T00:56:08;1.60;99.90
73939;DHT22;62291;47.554;8.504;2024-03-08T00:58:37;1.60;99.90
73939;DHT22;62291;47.554;8.504;2024-03-08T01:01:03;1.70;99.90
73939;DHT22;62291;47.554;8.504;2024-03-08T01:03:33;2.00;99.90
73939;DHT22;62291;47.554;8.504;2024-03-08T01:05:59;2.20;99.90
73939;DHT22;62291;47.554;8.504;2024-03-08T01:08:27;2.40;99.90
73939;DHT22;62291;47.554;8.504;2024-03-08T01:10:53;2.40;99.90
73939;DHT22;62291;47.554;8.504;2024-03-08T01:13:19;2.50;99.90
73939;DHT22;62291;47.554;8.504;2024-03-08T01:15:45;2.50;99.90
73939;DHT22;62291;47.554;8.504;2024-03-08T01:18:11;2.60;99.90
73939;DHT22;62291;47.554;8.504;2024-03-08T01:20:37;2.60;99.90
73939;DHT22;62291;47.554;8.504;2024-03-08T01:23:03;2.60;99.90
73939;DHT22;62291;47.554;8.504;2024-03-08T01:25:29;2.70;99.90
73939;DHT22;62291;47.554;8.504;2024-03-08T01:27:57;2.70;99.90
73939;DHT22;62291;47.554;8.504;2024-03-08T01:30:23;2.70;99.90
73939;DHT22;62291;47.554;8.504;2024-03-08T01:32:48;2.70;99.90
73939;DHT22;62291;47.554;8.504;2024-03-08T01:35:14;2.70;99.90
73939;DHT22;62291;47.554;8.504;2024-03-08T01:37:40;2.80;99.90
73939;DHT22;62291;47.554;8.504;2024-03-08T01:40:06;2.70;99.90
73939;DHT22;62291;47.554;8.504;2024-03-08T01:42:34;2.70;99.90
73939;DHT22;62291;47.554;8.504;2024-03-08T01:45:05;2.70;99.90
73939;DHT22;62291;47.554;8.504;2024-03-08T01:47:32;2.80;99.90
73939;DHT22;62291;47.554;8.504;2024-03-08T01:50:02;2.80;99.90
73939;DHT22;62291;47.554;8.504;2024-03-08T01:52:32;2.80;99.90
73939;DHT22;62291;47.554;8.504;2024-03-08T01:55:02;2.70;99.90
73939;DHT22;62291;47.554;8.504;2024-03-08T01:57:31;2.70;99.90
73939;DHT22;62291;47.554;8.504;2024-03-08T01:59:59;2.70;99.90
73939;DHT22;62291;47.554;8.504;2024-03-08T02:02:31;2.70;99.90
73939;DHT22;62291;47.554;8.504;2024-03-08T02:04:57;2.70;99.90
73939;DHT22;62291;47.554;8.504;2024-03-08T02:07:23;2.70;99.90
73939;DHT22;62291;47.554;8.504;2024-03-08T02:09:48;2.60;99.90
73939;DHT22;62291;47.554;8.504;2024-03-08T02:12:14;2.70;99.90
73939;DHT22;62291;47.554;8.504;2024-03-08T02:14:41;2.60;99.90
73939;DHT22;62291;47.554;8.504;2024-03-08T02:17:07;2.60;99.90
73939;DHT22;62291;47.554;8.504;2024-03-08T02:19:33;2.50;99.90
73939;DHT22;62291;47.554;8.504;2024-03-08T02:21:59;2.50;99.90
73939;DHT22;62291;47.554;8.504;2024-03-08T02:24:24;2.50;99.90
73939;DHT22;62291;47.554;8.504;2024-03-08T02:26:51;2.40;99.90
73939;DHT22;62291;47.554;8.504;2024-03-08T02:29:16;2.40;99.90
73939;DHT22;62291;47.554;8.504;2024-03-08T02:31:42;2.40;99.90
73939;DHT22;62291;47.554;8.504;2024-03-08T02:34:08;2.40;99.90
73939;DHT22;62291;47.554;8.504;2024-03-08T02:36:35;2.30;99.90
73939;DHT22;62291;47.554;8.504;2024-03-08T02:39:04;2.40;99.90
73939;DHT22;62291;47.554;8.504;2024-03-08T02:41:31;2.40;99.90
73939;DHT22;62291;47.554;8.504;2024-03-08T02:43:56;2.40;99.90
73939;DHT22;62291;47.554;8.504;2024-03-08T02:46:22;2.40;99.90
73939;DHT22;62291;47.554;8.504;2024-03-08T02:48:48;2.30;99.90
73939;DHT22;62291;47.554;8.504;2024-03-08T02:51:14;2.20;99.90
73939;DHT22;62291;47.554;8.504;2024-03-08T02:53:41;2.20;99.90
73939;DHT22;62291;47.554;8.504;2024-03-08T02:56:08;2.30;99.90
73939;DHT22;62291;47.554;8.504;2024-03-08T02:58:38;2.30;99.90
73939;DHT22;62291;47.554;8.504;2024-03-08T03:01:04;2.30;99.90
73939;DHT22;62291;47.554;8.504;2024-03-08T03:03:29;2.40;99.90
73939;DHT22;62291;47.554;8.504;2024-03-08T03:05:55;2.50;99.90
73939;DHT22;62291;47.554;8.504;2024-03-08T03:08:21;2.60;99.90
73939;DHT22;62291;47.554;8.504;2024-03-08T03:10:47;2.60;99.90
73939;DHT22;62291;47.554;8.504;2024-03-08T03:13:12;2.70;99.90
73939;DHT22;62291;47.554;8.504;2024-03-08T03:15:39;2.80;99.90
73939;DHT22;62291;47.554;8.504;2024-03-08T03:18:07;2.80;99.90
73939;DHT22;62291;47.554;8.504;2024-03-08T03:20:33;2.80;99.90
73939;DHT22;62291;47.554;8.504;2024-03-08T03:23:05;2.90;99.90
73939;DHT22;62291;47.554;8.504;2024-03-08T03:25:33;2.90;99.90
73939;DHT22;62291;47.554;8.504;2024-03-08T03:28:03;3.00;99.90
73939;DHT22;62291;47.554;8.504;2024-03-08T03:30:30;3.00;99.90
73939;DHT22;62291;47.554;8.504;2024-03-08T03:33:00;3.00;99.90
73939;DHT22;62291;47.554;8.504;2024-03-08T03:35:27;3.10;99.90
73939;DHT22;62291;47.554;8.504;2024-03-08T03:37:52;3.10;99.90
73939;DHT22;62291;47.554;8.504;2024-03-08T03:40:35;3.10;99.90
73939;DHT22;62291;47.554;8.504;2024-03-08T03:43:02;3.10;99.90
73939;DHT22;62291;47.554;8.504;2024-03-08T03:45:28;3.20;99.90
73939;DHT22;62291;47.554;8.504;2024-03-08T03:47:54;3.10;99.90
73939;DHT22;62291;47.554;8.504;2024-03-08T03:50:20;3.20;99.90
73939;DHT22;62291;47.554;8.504;2024-03-08T03:52:46;3.20;99.90
73939;DHT22;62291;47.554;8.504;2024-03-08T03:55:13;3.30;99.90
73939;DHT22;62291;47.554;8.504;2024-03-08T03:57:39;3.30;99.90
73939;DHT22;62291;47.554;8.504;2024-03-08T04:00:05;3.30;99.90
73939;DHT22;62291;47.554;8.504;2024-03-08T04:02:38;3.40;99.90
73939;DHT22;62291;47.554;8.504;2024-03-08T04:05:05;3.40;99.90
73939;DHT22;62291;47.554;8.504;2024-03-08T04:07:32;3.40;99.90
73939;DHT22;62291;47.554;8.504;2024-03-08T04:09:57;3.40;99.90
73939;DHT22;62291;47.554;8.504;2024-03-08T04:12:23;3.40;99.90
73939;DHT22;62291;47.554;8.504;2024-03-08T04:14:49;3.50;99.90
73939;DHT22;62291;47.554;8.504;2024-03-08T04:17:15;3.50;99.90
73939;DHT22;62291;47.554;8.504;2024-03-08T04:19:40;3.50;99.90
73939;DHT22;62291;47.554;8.504;2024-03-08T04:22:06;3.40;99.90
73939;DHT22;62291;47.554;8.504;2024-03-08T04:24:33;3.50;99.90
73939;DHT22;62291;47.554;8.504;2024-03-08T04:26:59;3.40;99.90
73939;DHT22;62291;47.554;8.504;2024-03-08T04:29:25;3.50;99.90
73939;DHT22;62291;47.554;8.504;2024-03-08T04:31:51;3.50;99.90
73939;DHT22;62291;47.554;8.504;2024-03-08T04:34:20;3.50;99.90
73939;DHT22;62291;47.554;8.504;2024-03-08T04:36:47;3.50;99.90
73939;DHT22;62291;47.554;8.504;2024-03-08T04:39:13;3.50;99.90
73939;DHT22;62291;47.554;8.504;2024-03-08T04:41:39;3.50;99.90
73939;DHT22;62291;47.554;8.504;2024-03-08T04:44:05;3.50;99.90
73939;DHT22;62291;47.554;8.504;2024-03-08T04:46:31;3.40;99.90
73939;DHT22;62291;47.554;8.504;2024-03-08T04:48:57;3.50;99.90
73939;DHT22;62291;47.554;8.504;2024-03-08T04:51:25;3.60;99.90
73939;DHT22;62291;47.554;8.504;2024-03-08T04:53:50;3.60;99.90
73939;DHT22;62291;47.554;8.504;2024-03-08T04:56:16;3.50;99.90
73939;DHT22;62291;47.554;8.504;2024-03-08T04:58:42;3.50;99.90
73939;DHT22;62291;47.554;8.504;2024-03-08T05:01:07;3.50;99.90
73939;DHT22;62291;47.554;8.504;2024-03-08T05:03:36;3.50;99.90
73939;DHT22;62291;47.554;8.504;2024-03-08T05:06:02;3.50;99.90
73939;DHT22;62291;47.554;8.504;2024-03-08T05:08:27;3.50;99.90
73939;DHT22;62291;47.554;8.504;2024-03-08T05:10:54;3.60;99.90
73939;DHT22;62291;47.554;8.504;2024-03-08T05:13:19;3.60;99.90
73939;DHT22;62291;47.554;8.504;2024-03-08T05:15:51;3.60;99.90
73939;DHT22;62291;47.554;8.504;2024-03-08T05:18:16;3.60;99.90
73939;DHT22;62291;47.554;8.504;2024-03-08T05:20:42;3.70;99.90
73939;DHT22;62291;47.554;8.504;2024-03-08T05:23:08;3.70;99.90
73939;DHT22;62291;47.554;8.504;2024-03-08T05:25:33;3.70;99.90
73939;DHT22;62291;47.554;8.504;2024-03-08T05:27:59;3.60;99.90
73939;DHT22;62291;47.554;8.504;2024-03-08T05:30:25;3.60;99.90
73939;DHT22;62291;47.554;8.504;2024-03-08T05:32:50;3.60;99.90
73939;DHT22;62291;47.554;8.504;2024-03-08T05:35:16;3.60;99.90
73939;DHT22;62291;47.554;8.504;2024-03-08T05:37:42;3.50;99.90
73939;DHT22;62291;47.554;8.504;2024-03-08T05:40:08;3.50;99.90
73939;DHT22;62291;47.554;8.504;2024-03-08T05:42:37;3.50;99.90
73939;DHT22;62291;47.554;8.504;2024-03-08T05:45:07;3.50;99.90
73939;DHT22;62291;47.554;8.504;2024-03-08T05:47:32;3.50;99.90
73939;DHT22;62291;47.554;8.504;2024-03-08T05:49:59;3.50;99.90
73939;DHT22;62291;47.554;8.504;2024-03-08T05:52:25;3.40;99.90
73939;DHT22;62291;47.554;8.504;2024-03-08T05:54:53;3.50;99.90
73939;DHT22;62291;47.554;8.504;2024-03-08T05:57:19;3.50;99.90
73939;DHT22;62291;47.554;8.504;2024-03-08T05:59:45;3.40;99.90
73939;DHT22;62291;47.554;8.504;2024-03-08T06:02:11;3.50;99.90
73939;DHT22;62291;47.554;8.504;2024-03-08T06:04:36;3.40;99.90
73939;DHT22;62291;47.554;8.504;2024-03-08T06:07:03;3.50;99.90
73939;DHT22;62291;47.554;8.504;2024-03-08T06:09:29;3.50;99.90
73939;DHT22;62291;47.554;8.504;2024-03-08T06:11:55;3.50;99.90
73939;DHT22;62291;47.554;8.504;2024-03-08T06:14:22;3.50;99.90
73939;DHT22;62291;47.554;8.504;2024-03-08T06:16:48;3.40;99.90
73939;DHT22;62291;47.554;8.504;2024-03-08T06:19:15;3.40;99.90
73939;DHT22;62291;47.554;8.504;2024-03-08T06:21:41;3.40;99.90
73939;DHT22;62291;47.554;8.504;2024-03-08T06:24:07;3.40;99.90
73939;DHT22;62291;47.554;8.504;2024-03-08T06:26:32;3.50;99.90
73939;DHT22;62291;47.554;8.504;2024-03-08T06:28:58;3.50;99.90
73939;DHT22;62291;47.554;8.504;2024-03-08T06:31:24;3.50;99.90
73939;DHT22;62291;47.554;8.504;2024-03-08T06:33:49;3.50;99.90
73939;DHT22;62291;47.554;8.504;2024-03-08T06:36:18;3.50;99.90
73939;DHT22;62291;47.554;8.504;2024-03-08T06:38:50;3.50;99.90
73939;DHT22;62291;47.554;8.504;2024-03-08T06:41:15;3.60;99.90
73939;DHT22;62291;47.554;8.504;2024-03-08T06:43:46;3.60;99.90
73939;DHT22;62291;47.554;8.504;2024-03-08T06:46:12;3.70;99.90
73939;DHT22;62291;47.554;8.504;2024-03-08T06:48:41;3.70;99.90
73939;DHT22;62291;47.554;8.504;2024-03-08T06:51:07;3.60;99.90
73939;DHT22;62291;47.554;8.504;2024-03-08T06:53:33;3.60;99.90
73939;DHT22;62291;47.554;8.504;2024-03-08T06:56:01;3.60;99.90
73939;DHT22;62291;47.554;8.504;2024-03-08T06:58:27;3.70;99.90
73939;DHT22;62291;47.554;8.504;2024-03-08T07:00:53;3.70;99.90
73939;DHT22;62291;47.554;8.504;2024-03-08T07:03:19;3.60;99.90
73939;DHT22;62291;47.554;8.504;2024-03-08T07:05:45;3.70;99.90
73939;DHT22;62291;47.554;8.504;2024-03-08T07:08:10;3.80;99.90
73939;DHT22;62291;47.554;8.504;2024-03-08T07:10:39;3.80;99.90
73939;DHT22;62291;47.554;8.504;2024-03-08T07:13:07;3.80;99.90
73939;DHT22;62291;47.554;8.504;2024-03-08T07:15:33;3.80;99.90
73939;DHT22;62291;47.554;8.504;2024-03-08T07:17:59;3.80;99.90
73939;DHT22;62291;47.554;8.504;2024-03-08T07:20:25;3.80;99.90
73939;DHT22;62291;47.554;8.504;2024-03-08T07:22:51;3.70;99.90
73939;DHT22;62291;47.554;8.504;2024-03-08T07:25:17;3.80;99.90
73939;DHT22;62291;47.554;8.504;2024-03-08T07:27:55;3.80;99.90
73939;DHT22;62291;47.554;8.504;2024-03-08T07:30:25;3.80;99.90
73939;DHT22;62291;47.554;8.504;2024-03-08T07:33:09;3.90;99.90
73939;DHT22;62291;47.554;8.504;2024-03-08T07:35:38;3.90;99.90
73939;DHT22;62291;47.554;8.504;2024-03-08T07:38:08;4.00;99.90
73939;DHT22;62291;47.554;8.504;2024-03-08T07:40:39;4.10;99.90
73939;DHT22;62291;47.554;8.504;2024-03-08T07:43:10;4.10;99.90
73939;DHT22;62291;47.554;8.504;2024-03-08T07:45:39;4.00;99.90
73939;DHT22;62291;47.554;8.504;2024-03-08T07:48:05;4.10;99.90
73939;DHT22;62291;47.554;8.504;2024-03-08T07:50:38;4.20;99.90
73939;DHT22;62291;47.554;8.504;2024-03-08T07:53:05;4.20;99.90
73939;DHT22;62291;47.554;8.504;2024-03-08T07:55:34;4.20;99.90
73939;DHT22;62291;47.554;8.504;2024-03-08T07:58:04;4.20;99.90
73939;DHT22;62291;47.554;8.504;2024-03-08T08:00:30;4.20;99.90
73939;DHT22;62291;47.554;8.504;2024-03-08T08:02:57;4.30;99.90
73939;DHT22;62291;47.554;8.504;2024-03-08T08:05:23;4.40;99.90
73939;DHT22;62291;47.554;8.504;2024-03-08T08:07:48;4.40;99.90
73939;DHT22;62291;47.554;8.504;2024-03-08T08:10:15;4.40;99.90
73939;DHT22;62291;47.554;8.504;2024-03-08T08:12:49;4.40;99.90
73939;DHT22;62291;47.554;8.504;2024-03-08T08:15:15;4.40;99.90
73939;DHT22;62291;47.554;8.504;2024-03-08T08:17:42;4.40;99.90
73939;DHT22;62291;47.554;8.504;2024-03-08T08:20:12;4.40;99.90
73939;DHT22;62291;47.554;8.504;2024-03-08T08:22:42;4.40;99.90
73939;DHT22;62291;47.554;8.504;2024-03-08T08:25:11;4.30;99.90
73939;DHT22;62291;47.554;8.504;2024-03-08T08:27:38;4.40;99.90
73939;DHT22;62291;47.554;8.504;2024-03-08T08:30:10;4.50;99.90
73939;DHT22;62291;47.554;8.504;2024-03-08T08:32:37;4.40;99.90
73939;DHT22;62291;47.554;8.504;2024-03-08T08:35:03;4.50;99.90
73939;DHT22;62291;47.554;8.504;2024-03-08T08:37:30;4.50;99.90
73939;DHT22;62291;47.554;8.504;2024-03-08T08:39:57;4.70;99.90
73939;DHT22;62291;47.554;8.504;2024-03-08T08:42:23;4.90;99.90
73939;DHT22;62291;47.554;8.504;2024-03-08T08:44:49;5.00;99.90
73939;DHT22;62291;47.554;8.504;2024-03-08T08:47:16;5.00;99.90
73939;DHT22;62291;47.554;8.504;2024-03-08T08:49:45;5.20;99.90
73939;DHT22;62291;47.554;8.504;2024-03-08T08:52:15;5.30;99.90
73939;DHT22;62291;47.554;8.504;2024-03-08T08:54:42;5.20;99.90
73939;DHT22;62291;47.554;8.504;2024-03-08T08:57:08;5.20;99.90
73939;DHT22;62291;47.554;8.504;2024-03-08T08:59:34;5.10;99.90
73939;DHT22;62291;47.554;8.504;2024-03-08T09:02:06;5.20;99.90
73939;DHT22;62291;47.554;8.504;2024-03-08T09:04:32;5.40;99.90
73939;DHT22;62291;47.554;8.504;2024-03-08T09:06:58;5.50;99.90
73939;DHT22;62291;47.554;8.504;2024-03-08T09:09:24;5.50;99.90
73939;DHT22;62291;47.554;8.504;2024-03-08T09:11:51;5.70;99.90
73939;DHT22;62291;47.554;8.504;2024-03-08T09:14:17;5.80;99.90
73939;DHT22;62291;47.554;8.504;2024-03-08T09:16:42;5.90;99.90
73939;DHT22;62291;47.554;8.504;2024-03-08T09:19:08;6.00;99.90
73939;DHT22;62291;47.554;8.504;2024-03-08T09:21:36;5.90;99.90
73939;DHT22;62291;47.554;8.504;2024-03-08T09:24:02;5.90;99.90
73939;DHT22;62291;47.554;8.504;2024-03-08T09:26:28;5.70;99.90
73939;DHT22;62291;47.554;8.504;2024-03-08T09:28:54;5.70;99.90
73939;DHT22;62291;47.554;8.504;2024-03-08T09:31:22;5.60;99.90
73939;DHT22;62291;47.554;8.504;2024-03-08T09:33:48;5.40;99.90
73939;DHT22;62291;47.554;8.504;2024-03-08T09:36:14;5.30;99.90
73939;DHT22;62291;47.554;8.504;2024-03-08T09:38:40;5.20;99.90
73939;DHT22;62291;47.554;8.504;2024-03-08T09:41:06;5.20;99.90
73939;DHT22;62291;47.554;8.504;2024-03-08T09:43:31;5.10;99.90
73939;DHT22;62291;47.554;8.504;2024-03-08T09:45:58;5.30;99.90
73939;DHT22;62291;47.554;8.504;2024-03-08T09:48:25;5.40;99.90
73939;DHT22;62291;47.554;8.504;2024-03-08T09:50:51;5.50;99.90
73939;DHT22;62291;47.554;8.504;2024-03-08T09:53:17;5.50;99.90
73939;DHT22;62291;47.554;8.504;2024-03-08T09:55:43;5.30;99.90
73939;DHT22;62291;47.554;8.504;2024-03-08T09:58:15;5.30;99.90
73939;DHT22;62291;47.554;8.504;2024-03-08T10:00:41;5.20;99.90
73939;DHT22;62291;47.554;8.504;2024-03-08T10:03:07;5.40;99.90
73939;DHT22;62291;47.554;8.504;2024-03-08T10:05:34;5.50;99.90
73939;DHT22;62291;47.554;8.504;2024-03-08T10:08:00;5.50;99.90
73939;DHT22;62291;47.554;8.504;2024-03-08T10:10:26;5.30;99.90
73939;DHT22;62291;47.554;8.504;2024-03-08T10:12:52;5.40;99.90
73939;DHT22;62291;47.554;8.504;2024-03-08T10:15:17;5.50;99.90
73939;DHT22;62291;47.554;8.504;2024-03-08T10:17:43;5.60;99.90
73939;DHT22;62291;47.554;8.504;2024-03-08T10:20:17;5.80;99.90
73939;DHT22;62291;47.554;8.504;2024-03-08T10:22:43;6.10;99.90
73939;DHT22;62291;47.554;8.504;2024-03-08T10:25:12;6.40;99.90
73939;DHT22;62291;47.554;8.504;2024-03-08T10:27:41;6.50;99.90
73939;DHT22;62291;47.554;8.504;2024-03-08T10:30:15;6.50;99.90
73939;DHT22;62291;47.554;8.504;2024-03-08T10:32:45;6.40;99.90
73939;DHT22;62291;47.554;8.504;2024-03-08T10:35:11;6.50;99.90
73939;DHT22;62291;47.554;8.504;2024-03-08T10:37:47;6.60;99.90
73939;DHT22;62291;47.554;8.504;2024-03-08T10:40:17;6.80;99.90
73939;DHT22;62291;47.554;8.504;2024-03-08T10:42:54;6.90;99.90
73939;DHT22;62291;47.554;8.504;2024-03-08T10:50:41;7.00;99.90
73939;DHT22;62291;47.554;8.504;2024-03-08T10:53:11;7.00;99.90
73939;DHT22;62291;47.554;8.504;2024-03-08T10:55:40;7.10;99.90
73939;DHT22;62291;47.554;8.504;2024-03-08T10:58:09;7.10;99.90
73939;DHT22;62291;47.554;8.504;2024-03-08T11:00:35;7.20;99.90
73939;DHT22;62291;47.554;8.504;2024-03-08T11:03:03;7.00;99.90
73939;DHT22;62291;47.554;8.504;2024-03-08T11:08:18;7.00;99.90
73939;DHT22;62291;47.554;8.504;2024-03-08T11:13:36;7.10;99.90
73939;DHT22;62291;47.554;8.504;2024-03-08T11:16:02;7.10;99.90
73939;DHT22;62291;47.554;8.504;2024-03-08T11:18:35;7.00;99.90
73939;DHT22;62291;47.554;8.504;2024-03-08T11:21:04;6.80;99.90
73939;DHT22;62291;47.554;8.504;2024-03-08T11:23:38;6.60;99.90
73939;DHT22;62291;47.554;8.504;2024-03-08T11:26:21;6.70;99.90
73939;DHT22;62291;47.554;8.504;2024-03-08T11:28:49;6.70;99.90
73939;DHT22;62291;47.554;8.504;2024-03-08T11:31:24;6.50;99.90
73939;DHT22;62291;47.554;8.504;2024-03-08T11:33:51;6.50;99.90
73939;DHT22;62291;47.554;8.504;2024-03-08T11:36:23;6.50;99.90
73939;DHT22;62291;47.554;8.504;2024-03-08T11:38:50;6.50;99.90
73939;DHT22;62291;47.554;8.504;2024-03-08T11:41:27;6.60;99.90
73939;DHT22;62291;47.554;8.504;2024-03-08T11:44:03;6.70;99.90
73939;DHT22;62291;47.554;8.504;2024-03-08T11:46:33;6.40;99.90
73939;DHT22;62291;47.554;8.504;2024-03-08T11:49:00;6.30;99.90
73939;DHT22;62291;47.554;8.504;2024-03-08T11:51:27;6.30;99.90
73939;DHT22;62291;47.554;8.504;2024-03-08T11:53:53;6.70;99.90
73939;DHT22;62291;47.554;8.504;2024-03-08T11:56:18;7.20;99.90
73939;DHT22;62291;47.554;8.504;2024-03-08T11:58:56;7.70;99.90
73939;DHT22;62291;47.554;8.504;2024-03-08T12:01:26;8.00;99.90
73939;DHT22;62291;47.554;8.504;2024-03-08T12:03:56;8.00;99.90
73939;DHT22;62291;47.554;8.504;2024-03-08T12:06:24;8.00;99.90
73939;DHT22;62291;47.554;8.504;2024-03-08T12:08:50;7.80;99.90
73939;DHT22;62291;47.554;8.504;2024-03-08T12:11:20;7.70;99.90
73939;DHT22;62291;47.554;8.504;2024-03-08T12:13:49;7.90;99.90
73939;DHT22;62291;47.554;8.504;2024-03-08T12:16:17;7.90;99.90
73939;DHT22;62291;47.554;8.504;2024-03-08T12:18:44;8.00;99.90
73939;DHT22;62291;47.554;8.504;2024-03-08T12:21:11;8.30;99.90
73939;DHT22;62291;47.554;8.504;2024-03-08T12:23:38;8.50;99.90
73939;DHT22;62291;47.554;8.504;2024-03-08T12:26:22;8.50;99.90
73939;DHT22;62291;47.554;8.504;2024-03-08T12:28:48;8.90;99.90
73939;DHT22;62291;47.554;8.504;2024-03-08T12:31:17;8.50;99.90
73939;DHT22;62291;47.554;8.504;2024-03-08T12:33:50;8.50;99.90
73939;DHT22;62291;47.554;8.504;2024-03-08T12:36:17;8.50;99.90
73939;DHT22;62291;47.554;8.504;2024-03-08T12:38:49;8.50;99.90
73939;DHT22;62291;47.554;8.504;2024-03-08T12:41:18;8.00;99.90
73939;DHT22;62291;47.554;8.504;2024-03-08T12:43:45;7.60;99.90
73939;DHT22;62291;47.554;8.504;2024-03-08T12:46:17;7.30;99.90
73939;DHT22;62291;47.554;8.504;2024-03-08T12:48:43;7.60;99.90
73939;DHT22;62291;47.554;8.504;2024-03-08T12:51:13;7.70;99.90
73939;DHT22;62291;47.554;8.504;2024-03-08T12:53:38;7.40;99.90
73939;DHT22;62291;47.554;8.504;2024-03-08T12:56:06;7.40;99.90
73939;DHT22;62291;47.554;8.504;2024-03-08T12:58:36;7.60;99.90
73939;DHT22;62291;47.554;8.504;2024-03-08T13:01:02;7.80;99.90
73939;DHT22;62291;47.554;8.504;2024-03-08T13:03:30;7.60;99.90
73939;DHT22;62291;47.554;8.504;2024-03-08T13:05:57;7.40;99.90
73939;DHT22;62291;47.554;8.504;2024-03-08T13:08:23;7.30;99.90
73939;DHT22;62291;47.554;8.504;2024-03-08T13:10:50;7.30;99.90
73939;DHT22;62291;47.554;8.504;2024-03-08T13:13:16;7.30;99.90
73939;DHT22;62291;47.554;8.504;2024-03-08T13:15:42;7.30;99.90
73939;DHT22;62291;47.554;8.504;2024-03-08T13:18:08;7.40;99.90
73939;DHT22;62291;47.554;8.504;2024-03-08T13:20:34;7.70;99.90
73939;DHT22;62291;47.554;8.504;2024-03-08T13:23:05;7.60;99.90
73939;DHT22;62291;47.554;8.504;2024-03-08T13:25:33;7.40;99.90
73939;DHT22;62291;47.554;8.504;2024-03-08T13:27:59;7.30;99.90
73939;DHT22;62291;47.554;8.504;2024-03-08T13:30:26;7.30;99.90
73939;DHT22;62291;47.554;8.504;2024-03-08T13:32:53;7.30;99.90
73939;DHT22;62291;47.554;8.504;2024-03-08T13:35:19;7.50;99.90
73939;DHT22;62291;47.554;8.504;2024-03-08T13:37:51;7.50;99.90
73939;DHT22;62291;47.554;8.504;2024-03-08T13:40:17;7.30;99.90
73939;DHT22;62291;47.554;8.504;2024-03-08T13:42:49;7.40;99.90
73939;DHT22;62291;47.554;8.504;2024-03-08T13:45:15;7.60;99.90
73939;DHT22;62291;47.554;8.504;2024-03-08T13:47:48;7.60;99.90
73939;DHT22;62291;47.554;8.504;2024-03-08T13:50:14;7.40;99.90
73939;DHT22;62291;47.554;8.504;2024-03-08T13:52:47;7.10;99.90
73939;DHT22;62291;47.554;8.504;2024-03-08T13:55:14;7.10;99.90
73939;DHT22;62291;47.554;8.504;2024-03-08T13:57:40;7.10;99.90
73939;DHT22;62291;47.554;8.504;2024-03-08T14:00:06;7.10;99.90
73939;DHT22;62291;47.554;8.504;2024-03-08T14:02:32;7.20;99.90
73939;DHT22;62291;47.554;8.504;2024-03-08T14:04:59;7.20;99.90
73939;DHT22;62291;47.554;8.504;2024-03-08T14:07:27;6.90;99.90
73939;DHT22;62291;47.554;8.504;2024-03-08T14:09:54;7.00;99.90
73939;DHT22;62291;47.554;8.504;2024-03-08T14:12:20;6.80;99.90
73939;DHT22;62291;47.554;8.504;2024-03-08T14:14:45;6.70;99.90
73939;DHT22;62291;47.554;8.504;2024-03-08T14:17:11;6.60;99.90
73939;DHT22;62291;47.554;8.504;2024-03-08T14:19:42;6.70;99.90
73939;DHT22;62291;47.554;8.504;2024-03-08T14:22:08;6.70;99.90
73939;DHT22;62291;47.554;8.504;2024-03-08T14:24:36;6.80;99.90
73939;DHT22;62291;47.554;8.504;2024-03-08T14:27:03;6.80;99.90
73939;DHT22;62291;47.554;8.504;2024-03-08T14:29:29;6.80;99.90
73939;DHT22;62291;47.554;8.504;2024-03-08T14:31:58;6.70;99.90
73939;DHT22;62291;47.554;8.504;2024-03-08T14:34:25;6.60;99.90
73939;DHT22;62291;47.554;8.504;2024-03-08T14:36:56;6.60;99.90
73939;DHT22;62291;47.554;8.504;2024-03-08T14:39:22;6.50;99.90
73939;DHT22;62291;47.554;8.504;2024-03-08T14:41:52;6.60;99.90
73939;DHT22;62291;47.554;8.504;2024-03-08T14:44:22;6.70;99.90
73939;DHT22;62291;47.554;8.504;2024-03-08T14:46:57;6.70;99.90
73939;DHT22;62291;47.554;8.504;2024-03-08T14:49:24;6.70;99.90
73939;DHT22;62291;47.554;8.504;2024-03-08T14:51:51;6.70;99.90
73939;DHT22;62291;47.554;8.504;2024-03-08T14:54:17;6.70;99.90
73939;DHT22;62291;47.554;8.504;2024-03-08T14:56:48;6.60;99.90
73939;DHT22;62291;47.554;8.504;2024-03-08T14:59:16;6.50;99.90
73939;DHT22;62291;47.554;8.504;2024-03-08T15:01:42;6.30;99.90
73939;DHT22;62291;47.554;8.504;2024-03-08T15:04:09;6.40;99.90
73939;DHT22;62291;47.554;8.504;2024-03-08T15:06:38;6.40;99.90
73939;DHT22;62291;47.554;8.504;2024-03-08T15:09:05;6.40;99.90
73939;DHT22;62291;47.554;8.504;2024-03-08T15:11:47;6.40;99.90
73939;DHT22;62291;47.554;8.504;2024-03-08T15:14:15;6.40;99.90
73939;DHT22;62291;47.554;8.504;2024-03-08T15:16:42;6.40;99.90
73939;DHT22;62291;47.554;8.504;2024-03-08T15:19:08;6.40;99.90
73939;DHT22;62291;47.554;8.504;2024-03-08T15:21:34;6.50;99.90
73939;DHT22;62291;47.554;8.504;2024-03-08T15:24:01;6.70;99.90
73939;DHT22;62291;47.554;8.504;2024-03-08T15:26:28;6.80;99.90
73939;DHT22;62291;47.554;8.504;2024-03-08T15:28:55;6.90;99.90
73939;DHT22;62291;47.554;8.504;2024-03-08T15:31:22;6.90;99.90
73939;DHT22;62291;47.554;8.504;2024-03-08T15:33:50;7.00;99.90
73939;DHT22;62291;47.554;8.504;2024-03-08T15:36:36;7.10;99.90
73939;DHT22;62291;47.554;8.504;2024-03-08T15:39:02;7.20;99.90
73939;DHT22;62291;47.554;8.504;2024-03-08T15:41:35;7.20;99.90
73939;DHT22;62291;47.554;8.504;2024-03-08T15:44:01;7.30;99.90
73939;DHT22;62291;47.554;8.504;2024-03-08T15:46:26;7.30;99.90
73939;DHT22;62291;47.554;8.504;2024-03-08T15:48:53;7.20;99.90
73939;DHT22;62291;47.554;8.504;2024-03-08T15:51:19;7.20;99.90
73939;DHT22;62291;47.554;8.504;2024-03-08T15:53:45;7.20;99.90
73939;DHT22;62291;47.554;8.504;2024-03-08T15:56:18;7.20;99.90